Time;durP1;ratioP1;P1;durP2;ratioP2;P2;SDS_P1;SDS_P2;PMS_P1;PMS_P2;Temp;Humidity;BMP_temperature;BMP_pressure;BME280_temperature;BME280_humidity;BME280_pressure;Samples;Min_cycle;Max_cycle;Signal;HPM_P1;HPM_P2
2021/12/05 00:23:18;;;;;;;;;;;23.10;41.30;;;;;;5075573;28;19908;-83
2021/12/05 00:25:48;;;;;;;;;;;23.10;41.30;;;;;;5075132;28;19974;-78
2021/12/05 00:46:26;;;;;;;;;;;23.10;41.40;;;;;;5074641;28;19947;-80
2021/12/05 01:02:45;;;;;;;;;;;23.10;41.60;;;;;;5075470;28;19915;-76
2021/12/05 01:05:30;;;;;;;;;;;23.10;41.60;;;;;;5074273;28;20019;-79
2021/12/05 01:15:28;;;;;;;;;;;23.10;41.60;;;;;;5075389;28;19919;-79
2021/12/05 01:18:11;;;;;;;;;;;23.10;41.60;;;;;;5073946;28;19943;-80
2021/12/05 01:20:38;;;;;;;;;;;23.10;41.60;;;;;;5074057;28;20023;-83
2021/12/05 01:23:09;;;;;;;;;;;23.10;41.60;;;;;;5074005;28;20013;-80
2021/12/05 01:25:45;;;;;;;;;;;23.10;41.70;;;;;;5073994;28;19970;-80
2021/12/05 01:33:39;;;;;;;;;;;23.10;41.70;;;;;;5073866;28;19908;-78
2021/12/05 01:36:18;;;;;;;;;;;23.10;41.70;;;;;;5074787;28;20229;-80
2021/12/05 01:39:21;;;;;;;;;;;23.10;41.80;;;;;;5074914;28;19929;-80
2021/12/05 01:47:19;;;;;;;;;;;22.90;42.20;;;;;;5074152;28;19964;-82
2021/12/05 01:55:01;;;;;;;;;;;22.70;42.40;;;;;;5074434;28;20462;-83
2021/12/05 02:00:40;;;;;;;;;;;22.60;42.50;;;;;;5073941;28;19913;-83
2021/12/05 02:11:09;;;;;;;;;;;22.60;42.50;;;;;;5074933;28;20494;-81
2021/12/05 02:43:30;;;;;;;;;;;22.40;42.70;;;;;;5077572;28;19909;-82
2021/12/05 02:45:33;;;;;;;;;;;22.50;42.70;;;;;;5067053;28;19999;-85
2021/12/05 02:47:59;;;;;;;;;;;22.50;42.70;;;;;;5077757;28;19915;-86
2021/12/05 02:50:26;;;;;;;;;;;22.40;42.70;;;;;;5077675;28;19913;-82
2021/12/05 02:52:56;;;;;;;;;;;22.50;42.70;;;;;;5077739;28;20391;-84
2021/12/05 02:55:31;;;;;;;;;;;22.50;42.70;;;;;;5077710;28;20340;-84
2021/12/05 02:58:01;;;;;;;;;;;22.50;42.70;;;;;;5077653;28;19935;-82
2021/12/05 03:00:40;;;;;;;;;;;22.40;42.70;;;;;;5061432;28;19997;-84
2021/12/05 03:03:16;;;;;;;;;;;22.50;42.70;;;;;;5077642;28;20003;-82
2021/12/05 03:05:45;;;;;;;;;;;22.40;42.70;;;;;;5061847;28;20273;-85
2021/12/05 03:08:13;;;;;;;;;;;22.40;42.70;;;;;;5060647;28;19913;-86
2021/12/05 03:10:39;;;;;;;;;;;22.40;42.70;;;;;;5077166;28;20397;-84
2021/12/05 03:13:07;;;;;;;;;;;22.40;42.70;;;;;;5077327;28;19940;-86
2021/12/05 03:15:33;;;;;;;;;;;22.40;42.70;;;;;;5060277;28;19908;-82
2021/12/05 03:18:00;;;;;;;;;;;22.40;42.70;;;;;;5060281;28;19909;-80
2021/12/05 03:20:26;;;;;;;;;;;22.40;42.70;;;;;;5060583;28;19999;-83
2021/12/05 03:22:52;;;;;;;;;;;22.40;42.70;;;;;;5077065;28;20349;-83
2021/12/05 03:25:17;;;;;;;;;;;22.40;42.80;;;;;;5076799;28;19908;-83
2021/12/05 03:27:43;;;;;;;;;;;22.40;42.80;;;;;;5060152;28;19919;-84
2021/12/05 03:30:09;;;;;;;;;;;22.40;42.90;;;;;;5076896;28;19919;-82
2021/12/05 03:32:39;;;;;;;;;;;22.40;42.90;;;;;;5076920;28;19970;-82
2021/12/05 03:35:05;;;;;;;;;;;22.30;42.80;;;;;;5060494;28;20327;-83
2021/12/05 03:37:31;;;;;;;;;;;22.30;42.80;;;;;;5075449;28;19912;-85
2021/12/05 03:39:57;;;;;;;;;;;22.40;42.90;;;;;;5059749;28;20229;-84
2021/12/05 03:42:22;;;;;;;;;;;22.30;42.80;;;;;;5076497;28;19915;-85
2021/12/05 03:44:50;;;;;;;;;;;22.30;42.80;;;;;;5060020;28;19909;-82
2021/12/05 03:47:16;;;;;;;;;;;22.30;42.80;;;;;;5059884;28;19909;-80
2021/12/05 03:49:41;;;;;;;;;;;22.30;42.90;;;;;;5060094;28;19919;-83
2021/12/05 03:52:08;;;;;;;;;;;22.30;42.90;;;;;;5076624;28;19908;-81
2021/12/05 03:54:34;;;;;;;;;;;22.30;42.90;;;;;;5076659;28;19909;-84
2021/12/05 03:57:02;;;;;;;;;;;22.30;42.90;;;;;;5059943;28;20344;-83
2021/12/05 03:59:30;;;;;;;;;;;22.20;42.90;;;;;;5059945;28;20008;-84
2021/12/05 04:01:56;;;;;;;;;;;22.30;42.90;;;;;;5060344;28;19919;-85
2021/12/05 04:04:24;;;;;;;;;;;22.30;42.90;;;;;;5059879;28;19913;-83
2021/12/05 04:06:49;;;;;;;;;;;22.20;42.80;;;;;;5060075;28;19920;-83
2021/12/05 04:09:18;;;;;;;;;;;22.20;42.80;;;;;;5059736;28;19962;-84
2021/12/05 04:11:47;;;;;;;;;;;22.30;42.80;;;;;;5076615;28;19909;-85
2021/12/05 04:14:15;;;;;;;;;;;22.30;42.80;;;;;;5060039;28;19919;-85
2021/12/05 04:16:41;;;;;;;;;;;22.20;42.80;;;;;;5059903;28;20242;-86
2021/12/05 04:19:06;;;;;;;;;;;22.20;42.80;;;;;;5059870;28;19919;-83
2021/12/05 04:21:32;;;;;;;;;;;22.30;42.80;;;;;;5076293;28;20288;-86
2021/12/05 04:23:58;;;;;;;;;;;22.30;42.80;;;;;;5059682;28;20374;-85
2021/12/05 04:26:24;;;;;;;;;;;22.20;42.80;;;;;;5059615;28;19908;-85
2021/12/05 04:28:52;;;;;;;;;;;22.20;42.80;;;;;;5059562;28;19917;-84
2021/12/05 04:31:21;;;;;;;;;;;22.20;42.80;;;;;;5059639;28;19916;-85
2021/12/05 04:33:47;;;;;;;;;;;22.20;42.80;;;;;;5059401;28;20007;-84
2021/12/05 04:36:14;;;;;;;;;;;22.20;42.80;;;;;;5059391;28;19947;-83
2021/12/05 04:38:40;;;;;;;;;;;22.20;42.80;;;;;;5059570;28;20007;-82
2021/12/05 04:41:06;;;;;;;;;;;22.20;42.90;;;;;;5076616;28;20003;-84
2021/12/05 04:43:37;;;;;;;;;;;22.20;42.80;;;;;;5059013;28;20234;-83
2021/12/05 04:46:03;;;;;;;;;;;22.20;42.80;;;;;;5075794;28;19912;-84
2021/12/05 04:48:29;;;;;;;;;;;22.20;42.80;;;;;;5058940;28;19912;-83
2021/12/05 04:50:56;;;;;;;;;;;22.20;42.80;;;;;;5075402;28;19919;-85
2021/12/05 04:53:26;;;;;;;;;;;22.20;42.80;;;;;;5075751;28;19908;-84
2021/12/05 04:55:54;;;;;;;;;;;22.20;42.80;;;;;;5075831;28;20353;-83
2021/12/05 04:58:19;;;;;;;;;;;22.20;42.80;;;;;;5059200;28;19908;-83
2021/12/05 05:00:48;;;;;;;;;;;22.20;42.80;;;;;;5075293;28;19923;-83
2021/12/05 05:03:13;;;;;;;;;;;22.10;42.80;;;;;;5075439;28;19908;-86
2021/12/05 05:05:48;;;;;;;;;;;22.10;42.80;;;;;;5075061;28;20381;-83
2021/12/05 05:08:14;;;;;;;;;;;22.20;42.80;;;;;;5059658;28;19908;-84
2021/12/05 05:10:44;;;;;;;;;;;22.20;42.80;;;;;;5075273;28;20353;-83
2021/12/05 05:13:10;;;;;;;;;;;22.20;42.80;;;;;;5059206;28;19999;-84
2021/12/05 05:15:38;;;;;;;;;;;22.20;42.80;;;;;;5058656;28;20302;-86
2021/12/05 05:18:05;;;;;;;;;;;22.10;42.70;;;;;;5058762;28;20005;-86
2021/12/05 05:20:50;;;;;;;;;;;22.20;42.80;;;;;;5058533;28;19917;-85
2021/12/05 05:23:33;;;;;;;;;;;22.10;42.70;;;;;;5075476;28;19915;-83
2021/12/05 05:40:17;;;;;;;;;;;22.10;42.80;;;;;;5014097;28;19928;-81
2021/12/05 05:50:14;;;;;;;;;;;22.10;42.80;;;;;;5074839;28;19909;-83
2021/12/05 05:52:42;;;;;;;;;;;22.10;42.80;;;;;;5057900;28;19951;-82
2021/12/05 05:55:13;;;;;;;;;;;22.10;42.80;;;;;;5057688;28;19908;-83
2021/12/05 05:57:57;;;;;;;;;;;22.10;42.80;;;;;;5074601;28;19963;-82
2021/12/05 06:00:32;;;;;;;;;;;22.10;42.70;;;;;;5074096;28;19912;-83
2021/12/05 06:05:45;;;;;;;;;;;22.10;42.70;;;;;;5074532;28;19931;-83
2021/12/05 06:08:13;;;;;;;;;;;22.10;42.80;;;;;;5057878;28;19921;-83
2021/12/05 06:10:38;;;;;;;;;;;22.10;42.80;;;;;;5074505;28;20336;-83
2021/12/05 06:13:04;;;;;;;;;;;22.10;42.80;;;;;;5057949;28;19908;-85
2021/12/05 06:15:31;;;;;;;;;;;22.10;42.80;;;;;;5057444;28;19938;-82
2021/12/05 06:17:57;;;;;;;;;;;22.10;42.80;;;;;;5057918;28;19961;-84
2021/12/05 06:20:26;;;;;;;;;;;22.10;42.80;;;;;;5074332;28;19913;-84
2021/12/05 06:22:52;;;;;;;;;;;22.10;42.70;;;;;;5074765;28;19913;-84
2021/12/05 06:25:23;;;;;;;;;;;22.10;42.70;;;;;;5074688;28;20278;-84
2021/12/05 06:27:52;;;;;;;;;;;22.10;42.80;;;;;;5074433;28;19935;-81
2021/12/05 06:41:19;;;;;;;;;;;22.40;43.20;;;;;;5074143;28;19923;-81
2021/12/05 06:46:24;;;;;;;;;;;22.40;42.80;;;;;;5074123;28;19916;-81
2021/12/05 06:48:49;;;;;;;;;;;22.50;42.80;;;;;;5058482;28;19909;-82
2021/12/05 06:51:25;;;;;;;;;;;22.50;42.60;;;;;;5073856;28;19974;-80
2021/12/05 06:53:51;;;;;;;;;;;22.50;42.60;;;;;;5073862;28;20237;-83
2021/12/05 06:56:16;;;;;;;;;;;22.50;42.50;;;;;;5073946;28;19909;-83
2021/12/05 06:58:44;;;;;;;;;;;22.50;42.40;;;;;;5057187;28;19952;-80
2021/12/05 07:01:10;;;;;;;;;;;22.50;42.30;;;;;;5057390;28;19912;-83
2021/12/05 07:03:37;;;;;;;;;;;22.50;42.30;;;;;;5057395;28;19908;-83
2021/12/05 07:06:09;;;;;;;;;;;22.50;42.30;;;;;;5056931;28;19926;-85
2021/12/05 07:08:37;;;;;;;;;;;22.50;42.20;;;;;;5073709;28;19913;-82
2021/12/05 07:19:19;;;;;;;;;;;22.50;42.10;;;;;;5024163;28;19918;-83
2021/12/05 07:21:53;;;;;;;;;;;22.20;35.50;;;;;;5049093;28;19912;-78
2021/12/05 07:40:29;;;;;;;;;;;18.90;41.00;;;;;;5077767;28;20371;-80
2021/12/05 07:43:00;;;;;;;;;;;19.70;39.70;;;;;;5076988;28;19915;-81
2021/12/05 07:45:33;;;;;;;;;;;20.20;39.00;;;;;;5077213;28;20341;-80
2021/12/05 07:48:05;;;;;;;;;;;20.60;38.50;;;;;;5060958;28;19944;-79
2021/12/05 07:50:42;;;;;;;;;;;21.00;38.20;;;;;;5076720;28;20398;-79
2021/12/05 07:53:16;;;;;;;;;;;21.20;38.00;;;;;;5076505;28;20261;-79
2021/12/05 07:55:44;;;;;;;;;;;21.40;37.90;;;;;;5076673;28;20008;-79
2021/12/05 08:16:57;;;;;;;;;;;22.20;37.80;;;;;;5076860;28;19909;-84
2021/12/05 08:19:25;;;;;;;;;;;22.20;37.80;;;;;;5075791;28;20348;-79
2021/12/05 08:21:57;;;;;;;;;;;22.30;37.80;;;;;;5059612;28;19995;-80
2021/12/05 08:24:24;;;;;;;;;;;22.40;37.90;;;;;;5076037;28;19909;-81
2021/12/05 08:26:51;;;;;;;;;;;22.40;37.80;;;;;;5075956;28;19908;-80
2021/12/05 08:29:22;;;;;;;;;;;22.50;37.90;;;;;;5075850;28;19982;-82
2021/12/05 09:23:08;;;;;;;;;;;22.90;38.50;;;;;;5074493;28;19920;-81
2021/12/05 09:28:37;;;;;;;;;;;22.90;38.40;;;;;;5075286;28;19908;-79
2021/12/05 09:31:02;;;;;;;;;;;22.90;38.40;;;;;;5074762;28;20471;-79
2021/12/05 10:06:54;;;;;;;;;;;23.10;38.60;;;;;;5073976;28;19927;-81
2021/12/05 10:15:54;;;;;;;;;;;23.20;38.50;;;;;;5074790;28;19915;-79
2021/12/05 10:26:36;;;;;;;;;;;23.20;38.60;;;;;;5074380;28;19957;-83
2021/12/05 10:38:02;;;;;;;;;;;23.20;38.60;;;;;;5074502;28;19908;-81
2021/12/05 10:40:42;;;;;;;;;;;23.20;38.70;;;;;;5073224;28;19913;-78
2021/12/05 10:43:10;;;;;;;;;;;23.30;38.80;;;;;;5073330;28;20256;-79
2021/12/05 10:45:37;;;;;;;;;;;23.30;38.70;;;;;;5056617;28;19974;-79
2021/12/05 10:48:10;;;;;;;;;;;23.30;38.70;;;;;;5059091;28;19919;-81
2021/12/05 10:50:45;;;;;;;;;;;23.30;38.70;;;;;;5076960;28;19915;-79
2021/12/05 10:53:30;;;;;;;;;;;23.30;38.70;;;;;;5076881;28;20020;-79
2021/12/05 10:56:03;;;;;;;;;;;23.30;38.70;;;;;;5077954;28;20354;-80
2021/12/05 10:58:33;;;;;;;;;;;23.30;38.80;;;;;;5078142;28;19908;-79
2021/12/05 11:01:04;;;;;;;;;;;23.30;38.80;;;;;;5060235;28;19913;-81
2021/12/05 11:03:29;;;;;;;;;;;23.30;38.80;;;;;;5077238;28;19909;-81
2021/12/05 11:05:55;;;;;;;;;;;23.30;38.80;;;;;;5076864;28;19924;-81
2021/12/05 11:08:33;;;;;;;;;;;23.30;38.80;;;;;;5077308;28;19909;-79
2021/12/05 11:11:08;;;;;;;;;;;23.30;38.80;;;;;;5060027;28;20260;-80
2021/12/05 11:13:35;;;;;;;;;;;23.30;38.80;;;;;;5062816;28;19916;-83
2021/12/05 11:16:02;;;;;;;;;;;23.40;38.80;;;;;;5087231;28;19943;-79
2021/12/05 11:18:46;;;;;;;;;;;23.40;38.80;;;;;;5086566;28;20349;-78
2021/12/05 11:21:34;;;;;;;;;;;23.40;38.90;;;;;;5069643;28;19912;-80
2021/12/05 11:24:10;;;;;;;;;;;23.40;39.10;;;;;;5069340;28;20031;-80
2021/12/05 11:26:36;;;;;;;;;;;23.30;39.00;;;;;;5080042;28;20260;-78
2021/12/05 11:29:04;;;;;;;;;;;23.40;39.00;;;;;;5078300;28;20359;-78
2021/12/05 11:31:32;;;;;;;;;;;23.30;39.00;;;;;;5077484;28;19908;-78
2021/12/05 11:34:03;;;;;;;;;;;23.40;39.00;;;;;;5077418;28;19913;-77
2021/12/05 11:36:30;;;;;;;;;;;23.40;39.00;;;;;;5077416;28;19971;-79
2021/12/05 11:38:58;;;;;;;;;;;23.40;39.00;;;;;;5077260;28;19920;-81
2021/12/05 11:41:23;;;;;;;;;;;23.40;39.00;;;;;;5059488;28;19912;-79
2021/12/05 11:43:52;;;;;;;;;;;23.40;39.00;;;;;;5075531;28;19919;-80
2021/12/05 11:46:18;;;;;;;;;;;23.40;39.00;;;;;;5076672;28;19909;-79
2021/12/05 11:48:48;;;;;;;;;;;23.40;39.00;;;;;;5075415;28;20007;-80
2021/12/05 11:51:20;;;;;;;;;;;23.40;39.10;;;;;;5075856;28;20371;-78
2021/12/05 11:53:50;;;;;;;;;;;23.40;39.10;;;;;;5076644;28;20305;-78
2021/12/05 11:56:23;;;;;;;;;;;23.40;39.10;;;;;;5075271;28;19908;-78
2021/12/05 11:59:03;;;;;;;;;;;23.40;39.10;;;;;;5074935;28;19913;-79
2021/12/05 12:01:41;;;;;;;;;;;23.40;39.10;;;;;;5058241;28;19940;-80
2021/12/05 12:04:07;;;;;;;;;;;23.40;39.10;;;;;;5075512;28;20011;-81
2021/12/05 12:06:33;;;;;;;;;;;23.40;39.10;;;;;;5074942;28;19920;-81
2021/12/05 12:08:58;;;;;;;;;;;23.40;39.10;;;;;;5075126;28;19908;-81
2021/12/05 12:11:24;;;;;;;;;;;23.40;39.00;;;;;;5075284;28;19916;-81
2021/12/05 12:13:51;;;;;;;;;;;23.40;39.10;;;;;;5058442;28;19908;-80
2021/12/05 12:16:17;;;;;;;;;;;23.40;39.10;;;;;;5075095;28;19908;-78
2021/12/05 12:18:45;;;;;;;;;;;23.40;39.00;;;;;;5076355;28;20416;-81
2021/12/05 12:21:17;;;;;;;;;;;23.50;39.10;;;;;;5074585;28;19924;-78
2021/12/05 12:23:43;;;;;;;;;;;23.40;39.00;;;;;;5075093;28;20003;-81
2021/12/05 12:26:11;;;;;;;;;;;23.40;39.10;;;;;;5074885;28;19940;-79
2021/12/05 12:28:36;;;;;;;;;;;23.50;39.10;;;;;;5074524;28;20337;-79
2021/12/05 12:31:11;;;;;;;;;;;23.40;39.10;;;;;;5074551;28;19923;-80
2021/12/05 12:34:00;;;;;;;;;;;23.40;39.10;;;;;;5070566;28;19927;-82
2021/12/05 12:36:36;;;;;;;;;;;23.50;39.20;;;;;;5042941;28;19908;-77
2021/12/05 12:39:06;;;;;;;;;;;23.40;39.20;;;;;;5075570;28;20315;-80
2021/12/05 12:41:32;;;;;;;;;;;23.40;39.30;;;;;;5060799;28;19920;-80
2021/12/05 12:44:09;;;;;;;;;;;23.50;39.30;;;;;;5058547;28;19913;-78
2021/12/05 12:46:34;;;;;;;;;;;23.50;39.50;;;;;;5075427;28;20456;-79
2021/12/05 12:49:20;;;;;;;;;;;23.40;39.50;;;;;;5076065;28;20033;-78
2021/12/05 12:52:04;;;;;;;;;;;23.40;39.70;;;;;;5075905;28;19920;-78
2021/12/05 12:54:36;;;;;;;;;;;23.50;39.80;;;;;;5076126;28;19908;-80
2021/12/05 12:57:08;;;;;;;;;;;23.50;39.90;;;;;;5076357;28;20310;-79
2021/12/05 12:59:35;;;;;;;;;;;23.50;39.90;;;;;;5076004;28;19956;-80
2021/12/05 13:10:23;;;;;;;;;;;22.40;38.90;;;;;;5075159;28;19920;-81
2021/12/05 13:12:50;;;;;;;;;;;22.60;38.60;;;;;;5075900;28;19909;-80
2021/12/05 13:15:19;;;;;;;;;;;22.80;38.30;;;;;;5076005;28;19909;-81
2021/12/05 13:17:52;;;;;;;;;;;23.00;38.10;;;;;;5074250;28;20408;-83
2021/12/05 13:20:28;;;;;;;;;;;23.10;37.90;;;;;;5057654;28;19962;-82
2021/12/05 13:23:00;;;;;;;;;;;23.20;37.70;;;;;;5057751;28;19943;-81
2021/12/05 13:25:25;;;;;;;;;;;23.30;38.40;;;;;;5057712;28;19908;-78
2021/12/05 13:27:57;;;;;;;;;;;23.40;37.90;;;;;;5074668;28;19966;-81
2021/12/05 13:30:32;;;;;;;;;;;23.40;37.80;;;;;;5075535;28;20242;-80
2021/12/05 13:33:17;;;;;;;;;;;23.50;37.90;;;;;;5074620;28;19908;-82
2021/12/05 13:35:43;;;;;;;;;;;23.50;37.90;;;;;;5075866;28;19930;-83
2021/12/05 13:38:28;;;;;;;;;;;23.60;37.90;;;;;;5057977;28;20400;-80
2021/12/05 13:40:56;;;;;;;;;;;23.60;38.50;;;;;;5091133;28;19916;-81
2021/12/05 13:43:28;;;;;;;;;;;23.60;37.90;;;;;;5074885;28;19919;-80
2021/12/05 13:45:56;;;;;;;;;;;23.70;38.00;;;;;;5057912;28;19951;-81
2021/12/05 13:54:02;;;;;;;;;;;23.70;38.00;;;;;;5680360;22;19924;-81
2021/12/05 13:56:31;;;;;;;;;;;23.80;38.00;;;;;;5037720;28;19910;-81
2021/12/05 13:58:59;;;;;;;;;;;23.80;38.00;;;;;;5021454;28;19951;-80
2021/12/05 14:01:34;;;;;;;;;;;23.70;38.00;;;;;;5021570;28;19941;-80
2021/12/05 14:04:08;;;;;;;;;;;23.80;38.00;;;;;;5022564;28;19920;-78
2021/12/05 14:06:53;;;;;;;;;;;23.80;38.00;;;;;;5055175;28;19989;-80
2021/12/05 14:09:21;;;;;;;;;;;23.80;38.00;;;;;;5055117;28;19909;-80
2021/12/05 14:11:50;;;;;;;;;;;23.90;38.10;;;;;;5054959;28;19995;-80
2021/12/05 14:14:16;;;;;;;;;;;23.90;38.10;;;;;;5021180;28;19996;-78
2021/12/05 14:16:42;;;;;;;;;;;23.90;38.10;;;;;;5037700;28;19939;-79
2021/12/05 14:19:10;;;;;;;;;;;23.90;38.10;;;;;;5054739;28;19991;-80
2021/12/05 14:21:44;;;;;;;;;;;23.90;38.10;;;;;;5037404;28;19916;-79
2021/12/05 14:24:09;;;;;;;;;;;23.90;38.10;;;;;;5041617;28;19908;-79
2021/12/05 14:26:39;;;;;;;;;;;23.90;38.10;;;;;;5041530;28;19920;-83
2021/12/05 14:29:08;;;;;;;;;;;23.90;38.20;;;;;;5024161;28;20007;-81
2021/12/05 14:31:37;;;;;;;;;;;23.90;38.30;;;;;;5058854;28;19909;-81
2021/12/05 14:34:05;;;;;;;;;;;23.90;38.30;;;;;;5041675;28;19908;-81
2021/12/05 14:36:38;;;;;;;;;;;23.90;38.30;;;;;;5041578;28;19924;-81
2021/12/05 14:39:05;;;;;;;;;;;23.90;38.30;;;;;;5024427;28;20374;-80
2021/12/05 14:41:30;;;;;;;;;;;24.00;38.30;;;;;;5040938;28;20010;-80
2021/12/05 14:43:59;;;;;;;;;;;23.90;38.30;;;;;;5041377;28;19912;-81
2021/12/05 14:46:27;;;;;;;;;;;24.00;38.30;;;;;;5058941;28;19920;-80
2021/12/05 14:49:08;;;;;;;;;;;24.00;38.20;;;;;;5041214;28;19956;-79
2021/12/05 14:51:37;;;;;;;;;;;24.00;38.10;;;;;;5058942;28;19912;-80
2021/12/05 14:54:02;;;;;;;;;;;24.10;38.20;;;;;;5040615;28;19920;-79
2021/12/05 14:56:29;;;;;;;;;;;24.10;38.20;;;;;;5040927;28;19909;-83
2021/12/05 14:59:14;;;;;;;;;;;24.10;38.20;;;;;;5041029;28;19912;-79
2021/12/05 15:01:41;;;;;;;;;;;24.10;38.20;;;;;;5040295;28;19913;-79
2021/12/05 15:04:10;;;;;;;;;;;24.00;38.10;;;;;;5058813;28;19909;-78
2021/12/05 15:06:39;;;;;;;;;;;24.10;38.20;;;;;;5057600;28;20302;-80
2021/12/05 15:09:06;;;;;;;;;;;24.10;38.20;;;;;;5058538;28;19908;-79
2021/12/05 15:11:32;;;;;;;;;;;24.10;38.20;;;;;;5024450;28;19920;-79
2021/12/05 15:14:03;;;;;;;;;;;24.10;38.20;;;;;;5041130;28;19933;-79
2021/12/05 15:16:29;;;;;;;;;;;24.10;38.20;;;;;;5058405;28;20003;-80
2021/12/05 15:18:54;;;;;;;;;;;24.10;38.20;;;;;;5041148;28;19974;-79
2021/12/05 15:21:21;;;;;;;;;;;24.10;38.20;;;;;;5024604;28;20338;-78
2021/12/05 15:23:49;;;;;;;;;;;24.10;38.20;;;;;;5040887;28;19919;-80
2021/12/05 15:26:20;;;;;;;;;;;24.10;38.20;;;;;;5025155;28;19943;-81
2021/12/05 15:28:48;;;;;;;;;;;24.10;38.20;;;;;;5059133;28;19920;-78
2021/12/05 15:31:16;;;;;;;;;;;24.10;38.20;;;;;;5058198;28;19909;-80
2021/12/05 15:33:42;;;;;;;;;;;24.10;38.20;;;;;;5058034;28;19908;-78
2021/12/05 15:36:11;;;;;;;;;;;24.10;38.20;;;;;;5058356;28;19944;-78
2021/12/05 15:38:39;;;;;;;;;;;24.10;38.20;;;;;;5040889;28;19919;-80
2021/12/05 15:41:07;;;;;;;;;;;24.20;38.40;;;;;;5048895;28;20428;-79
2021/12/05 15:43:34;;;;;;;;;;;24.10;38.70;;;;;;5078483;28;19908;-79
2021/12/05 15:46:04;;;;;;;;;;;24.10;39.20;;;;;;5060281;28;19908;-79
2021/12/05 15:48:32;;;;;;;;;;;24.20;39.40;;;;;;5084156;28;19916;-79
2021/12/05 15:50:58;;;;;;;;;;;24.20;39.70;;;;;;5081563;28;19912;-81
2021/12/05 15:53:25;;;;;;;;;;;24.20;40.30;;;;;;5037528;28;20405;-77
2021/12/05 15:55:57;;;;;;;;;;;24.20;40.50;;;;;;5037772;28;19913;-78
2021/12/05 15:58:32;;;;;;;;;;;24.20;40.80;;;;;;5037286;28;19913;-79
2021/12/05 16:01:03;;;;;;;;;;;24.30;41.20;;;;;;5037049;28;20373;-78
2021/12/05 16:03:43;;;;;;;;;;;24.30;41.70;;;;;;5037981;28;19909;-80
2021/12/05 16:06:14;;;;;;;;;;;24.30;41.50;;;;;;5021845;28;19909;-80
2021/12/05 16:08:42;;;;;;;;;;;24.30;41.40;;;;;;5039071;28;19928;-78
2021/12/05 16:11:11;;;;;;;;;;;24.40;41.40;;;;;;5039489;28;19910;-78
2021/12/05 16:13:42;;;;;;;;;;;24.40;41.60;;;;;;5007751;28;19910;-79
2021/12/05 16:16:12;;;;;;;;;;;24.30;41.60;;;;;;5033285;28;19909;-79
2021/12/05 16:18:38;;;;;;;;;;;24.40;41.70;;;;;;5049498;28;20282;-77
2021/12/05 16:21:12;;;;;;;;;;;24.40;41.80;;;;;;5017579;28;19914;-79
2021/12/05 16:23:43;;;;;;;;;;;24.40;41.70;;;;;;5049537;28;19952;-79
2021/12/05 16:26:20;;;;;;;;;;;24.40;41.70;;;;;;5049009;28;19909;-78
2021/12/05 16:29:07;;;;;;;;;;;24.40;42.00;;;;;;5032643;28;20238;-81
2021/12/05 16:31:39;;;;;;;;;;;24.30;42.10;;;;;;5049041;28;19909;-80
2021/12/05 16:34:11;;;;;;;;;;;24.40;42.30;;;;;;5032276;28;19914;-83
2021/12/05 16:36:40;;;;;;;;;;;24.40;42.30;;;;;;5047332;28;19917;-83
2021/12/05 16:39:18;;;;;;;;;;;24.40;42.70;;;;;;5017168;28;19925;-84
2021/12/05 16:41:57;;;;;;;;;;;24.50;42.10;;;;;;5017595;28;19918;-83
2021/12/05 16:44:26;;;;;;;;;;;23.80;31.70;;;;;;5000420;28;19993;-83
2021/12/05 16:46:57;;;;;;;;;;;21.70;31.40;;;;;;5000763;28;19911;-84
2021/12/05 16:49:26;;;;;;;;;;;20.60;32.70;;;;;;5000954;28;20501;-83
2021/12/05 16:51:52;;;;;;;;;;;;;;;;;;5017092;28;19910;-84
2021/12/05 16:54:30;;;;;;;;;;;18.00;36.60;;;;;;5027964;28;19975;-83
2021/12/05 16:57:09;;;;;;;;;;;17.90;37.60;;;;;;5046197;28;19963;-83
2021/12/05 16:59:39;;;;;;;;;;;17.20;38.80;;;;;;5057288;28;19912;-86
2021/12/05 17:02:16;;;;;;;;;;;16.90;40.20;;;;;;5060477;28;19908;-84
2021/12/05 17:05:04;;;;;;;;;;;16.70;40.80;;;;;;5056613;28;19944;-86
2021/12/05 17:07:50;;;;;;;;;;;16.30;41.80;;;;;;5045083;28;19928;-82
2021/12/05 17:10:25;;;;;;;;;;;16.00;42.60;;;;;;5044654;28;20047;-81
2021/12/05 17:12:54;;;;;;;;;;;15.80;42.40;;;;;;5044479;28;19909;-84
2021/12/05 17:15:19;;;;;;;;;;;15.10;43.80;;;;;;5022070;28;19909;-81
2021/12/05 17:17:48;;;;;;;;;;;14.90;68.00;;;;;;5037317;28;19920;-81
2021/12/05 17:20:16;;;;;;;;;;;;;;;;;;5037685;28;19913;-84
2021/12/05 17:22:51;;;;;;;;;;;16.20;69.40;;;;;;5035662;28;19909;-81
2021/12/05 17:25:37;;;;;;;;;;;16.00;71.60;;;;;;5036158;28;19909;-81
2021/12/05 17:28:03;;;;;;;;;;;17.10;45.20;;;;;;5019260;28;20409;-82
2021/12/05 17:30:31;;;;;;;;;;;17.90;58.10;;;;;;5020847;28;19909;-85
2021/12/05 17:32:57;;;;;;;;;;;19.10;41.70;;;;;;5022492;28;19913;-84
2021/12/05 17:35:28;;;;;;;;;;;19.80;48.50;;;;;;5022021;28;19920;-81
2021/12/05 17:37:54;;;;;;;;;;;20.30;42.20;;;;;;5022471;28;19921;-83
2021/12/05 17:40:22;;;;;;;;;;;20.60;42.60;;;;;;5022332;28;19917;-81
2021/12/05 17:42:47;;;;;;;;;;;20.90;39.80;;;;;;5039134;28;19920;-84
2021/12/05 17:45:16;;;;;;;;;;;21.10;38.60;;;;;;5022346;28;19909;-84
2021/12/05 17:47:44;;;;;;;;;;;21.30;38.40;;;;;;5022784;28;19910;-82
2021/12/05 17:50:11;;;;;;;;;;;21.50;38.20;;;;;;5038305;28;19909;-84
2021/12/05 17:52:39;;;;;;;;;;;21.60;38.10;;;;;;5021925;28;19936;-81
2021/12/05 17:55:16;;;;;;;;;;;21.70;38.10;;;;;;5022215;28;20361;-86
2021/12/05 17:57:47;;;;;;;;;;;21.90;38.10;;;;;;5036157;28;19909;-80
2021/12/05 18:00:33;;;;;;;;;;;22.00;38.30;;;;;;5021199;28;19924;-80
2021/12/05 18:02:59;;;;;;;;;;;22.10;38.10;;;;;;5037131;28;19913;-81
2021/12/05 18:05:27;;;;;;;;;;;22.20;38.00;;;;;;5033272;28;19924;-78
2021/12/05 18:07:53;;;;;;;;;;;22.30;38.10;;;;;;5057890;28;19962;-80
2021/12/05 18:10:22;;;;;;;;;;;22.30;38.10;;;;;;5074665;28;20000;-80
2021/12/05 18:12:52;;;;;;;;;;;22.40;38.20;;;;;;5075338;28;19909;-84
2021/12/05 18:15:22;;;;;;;;;;;22.50;38.50;;;;;;5058427;28;19909;-82
2021/12/05 18:17:47;;;;;;;;;;;22.50;38.60;;;;;;5058144;28;19931;-82
2021/12/05 18:20:14;;;;;;;;;;;22.60;38.70;;;;;;5058722;28;19916;-84
2021/12/05 18:22:42;;;;;;;;;;;22.60;38.80;;;;;;5075374;28;20330;-84
2021/12/05 18:25:09;;;;;;;;;;;22.70;38.90;;;;;;5058670;28;19909;-84
2021/12/05 18:27:35;;;;;;;;;;;22.70;38.90;;;;;;5074607;28;19951;-82
2021/12/05 18:30:01;;;;;;;;;;;22.80;39.00;;;;;;5059312;28;19909;-81
2021/12/05 18:32:29;;;;;;;;;;;22.80;38.90;;;;;;5059627;28;19908;-85
2021/12/05 18:34:59;;;;;;;;;;;22.90;39.00;;;;;;5075128;28;19920;-85
2021/12/05 18:37:30;;;;;;;;;;;22.90;39.00;;;;;;5074776;28;19916;-86
2021/12/05 18:39:55;;;;;;;;;;;23.00;39.00;;;;;;5058670;28;19923;-82
2021/12/05 18:42:24;;;;;;;;;;;23.00;39.20;;;;;;5058652;28;19952;-83
2021/12/05 18:45:01;;;;;;;;;;;23.00;39.20;;;;;;5058300;28;20342;-83
2021/12/05 18:47:29;;;;;;;;;;;23.00;39.30;;;;;;5074305;28;20360;-83
2021/12/05 18:49:54;;;;;;;;;;;23.10;39.20;;;;;;5059713;28;19955;-85
2021/12/05 18:52:20;;;;;;;;;;;23.10;39.70;;;;;;5064723;28;19909;-83
2021/12/05 18:54:46;;;;;;;;;;;23.10;39.10;;;;;;5066832;28;19920;-85
2021/12/05 18:57:14;;;;;;;;;;;23.10;39.20;;;;;;5059734;28;19908;-82
2021/12/05 18:59:57;;;;;;;;;;;23.20;39.30;;;;;;5074130;28;19980;-84
2021/12/05 19:05:09;;;;;;;;;;;23.20;39.40;;;;;;5072150;28;19936;-85
2021/12/05 19:08:00;;;;;;;;;;;23.20;39.40;;;;;;5057674;28;19909;-84
2021/12/05 19:13:10;;;;;;;;;;;23.20;39.50;;;;;;5075722;28;19920;-83
2021/12/05 19:15:36;;;;;;;;;;;23.30;39.60;;;;;;5061294;28;19908;-82
2021/12/05 19:18:01;;;;;;;;;;;23.20;39.50;;;;;;5061146;28;19920;-82
2021/12/05 19:20:28;;;;;;;;;;;23.30;40.10;;;;;;5060628;28;19912;-82
2021/12/05 19:22:54;;;;;;;;;;;23.30;39.60;;;;;;5077333;28;19920;-82
2021/12/05 19:25:23;;;;;;;;;;;23.30;39.60;;;;;;5060247;28;19935;-83
2021/12/05 19:27:48;;;;;;;;;;;23.30;39.70;;;;;;5060760;28;19909;-83
2021/12/05 19:30:18;;;;;;;;;;;23.30;39.60;;;;;;5060737;28;19998;-84
2021/12/05 19:32:43;;;;;;;;;;;23.30;39.70;;;;;;5077553;28;19909;-85
2021/12/05 19:35:09;;;;;;;;;;;23.30;39.60;;;;;;5060748;28;19919;-80
2021/12/05 19:37:37;;;;;;;;;;;23.40;39.80;;;;;;5060445;28;19913;-81
2021/12/05 19:40:06;;;;;;;;;;;23.40;40.20;;;;;;5076763;28;20008;-81
2021/12/05 19:42:33;;;;;;;;;;;23.40;40.80;;;;;;5076602;28;19909;-84
2021/12/05 19:44:59;;;;;;;;;;;23.40;40.90;;;;;;5059647;28;19980;-81
2021/12/05 19:47:25;;;;;;;;;;;23.40;40.80;;;;;;5060705;28;19963;-82
2021/12/05 19:49:50;;;;;;;;;;;23.40;40.80;;;;;;5059413;28;19908;-80
2021/12/05 19:52:18;;;;;;;;;;;23.40;40.80;;;;;;5059668;28;19909;-84
2021/12/05 19:54:44;;;;;;;;;;;23.50;40.70;;;;;;5059328;28;20239;-80
2021/12/05 19:57:12;;;;;;;;;;;23.40;40.60;;;;;;5076270;28;20017;-82
2021/12/05 19:59:37;;;;;;;;;;;23.50;40.90;;;;;;5059219;28;19908;-81
2021/12/05 20:02:07;;;;;;;;;;;23.50;41.10;;;;;;5060066;28;19916;-81
2021/12/05 20:04:34;;;;;;;;;;;23.50;41.70;;;;;;5059255;28;19919;-81